Time;durP1;ratioP1;P1;durP2;ratioP2;P2;SDS_P1;SDS_P2;PMS_P1;PMS_P2;Temp;Humidity;BMP_temperature;BMP_pressure;BME280_temperature;BME280_humidity;BME280_pressure;Samples;Min_cycle;Max_cycle;Signal;HPM_P1;HPM_P2
2023/03/03 00:00:36;;;;;;;;;;;;;;;-0.87;81.71;101669.34;108667;1259;59642;-81
2023/03/03 00:03:18;;;;;;;;;;;;;;;-0.86;81.67;101665.41;108544;1259;125197;-80
2023/03/03 00:05:45;;;;;;;;;;;;;;;-0.87;81.89;101666.73;108685;1263;67079;-81
2023/03/03 00:08:12;;;;;;;;;;;;;;;-0.87;81.74;101670.84;108716;1274;71236;-81
2023/03/03 00:10:39;;;;;;;;;;;;;;;-0.87;81.91;101661.27;108621;1259;125099;-81
2023/03/03 00:13:16;;;;;;;;;;;;;;;-0.86;81.85;101659.25;108660;1259;59860;-81
2023/03/03 00:15:43;;;;;;;;;;;;;;;-0.84;81.80;101651.80;108495;1263;124701;-81
2023/03/03 00:18:22;;;;;;;;;;;;;;;-0.82;81.85;101644.89;108590;1259;68095;-81
2023/03/03 00:20:53;;;;;;;;;;;;;;;-0.80;81.92;101646.45;108672;1259;72132;-81
2023/03/03 00:23:23;;;;;;;;;;;;;;;-0.78;82.03;101642.83;108616;1258;125284;-81
2023/03/03 00:25:50;;;;;;;;;;;;;;;-0.77;81.96;101629.13;108720;1262;59447;-82
2023/03/03 00:28:26;;;;;;;;;;;;;;;-0.77;81.93;101629.46;108480;1259;125453;-81
2023/03/03 00:30:53;;;;;;;;;;;;;;;-0.77;82.02;101625.16;108544;1264;66578;-81
2023/03/03 00:33:33;;;;;;;;;;;;;;;-0.77;82.02;101618.61;108479;1259;125054;-81
2023/03/03 00:36:10;;;;;;;;;;;;;;;-0.79;81.98;101618.98;108659;1275;59685;-81
2023/03/03 00:38:37;;;;;;;;;;;;;;;-0.80;81.88;101618.41;108621;1275;60040;-81
2023/03/03 00:41:07;;;;;;;;;;;;;;;-0.81;81.88;101611.39;108599;1259;125967;-81
2023/03/03 00:43:34;;;;;;;;;;;;;;;-0.84;81.91;101596.89;108703;1259;66063;-81
2023/03/03 00:46:01;;;;;;;;;;;;;;;-0.85;81.97;101583.30;108674;1258;125420;-81
2023/03/03 00:48:29;;;;;;;;;;;;;;;-0.87;81.89;101593.00;108725;1259;59278;-81
2023/03/03 00:50:58;;;;;;;;;;;;;;;-0.88;82.00;101599.22;108729;1259;59452;-81
2023/03/03 00:53:26;;;;;;;;;;;;;;;-0.90;82.04;101604.77;108616;1259;126162;-81
2023/03/03 00:55:53;;;;;;;;;;;;;;;-0.91;82.11;101598.84;108702;1265;67499;-81
2023/03/03 00:58:20;;;;;;;;;;;;;;;-0.91;81.98;101595.04;108653;1259;125225;-83
2023/03/03 01:00:51;;;;;;;;;;;;;;;-0.92;81.86;101600.63;108691;1260;59378;-81
2023/03/03 01:03:20;;;;;;;;;;;;;;;-0.93;82.06;101600.23;108492;1259;125276;-81
2023/03/03 01:05:47;;;;;;;;;;;;;;;-0.93;82.01;101604.89;108632;1259;74732;-81
2023/03/03 01:08:14;;;;;;;;;;;;;;;-0.93;82.20;101608.02;108734;1262;65671;-81
2023/03/03 01:10:47;;;;;;;;;;;;;;;-0.92;82.07;101599.98;108585;1259;124936;-81
2023/03/03 01:13:14;;;;;;;;;;;;;;;-0.91;82.33;101598.14;108670;1258;59164;-82
2023/03/03 01:15:41;;;;;;;;;;;;;;;-0.91;82.05;101593.83;108562;1259;125069;-81
2023/03/03 01:18:08;;;;;;;;;;;;;;;-0.90;82.27;101584.47;108638;1259;74616;-81
2023/03/03 01:20:35;;;;;;;;;;;;;;;-0.90;82.30;101575.86;108563;1258;67455;-82
2023/03/03 01:23:02;;;;;;;;;;;;;;;-0.87;82.12;101571.59;108544;1260;126059;-81
2023/03/03 01:25:29;;;;;;;;;;;;;;;-0.86;82.24;101564.82;108643;1263;59402;-82
2023/03/03 01:27:56;;;;;;;;;;;;;;;-0.84;82.06;101564.30;108491;1259;126033;-81
2023/03/03 01:30:23;;;;;;;;;;;;;;;-0.83;82.04;101573.89;108567;1259;74645;-81
2023/03/03 01:32:50;;;;;;;;;;;;;;;-0.82;82.09;101578.55;108719;1259;65574;-81
2023/03/03 01:35:17;;;;;;;;;;;;;;;-0.82;82.04;101574.84;108611;1259;126725;-82
2023/03/03 01:37:44;;;;;;;;;;;;;;;-0.82;82.16;101568.59;108588;1259;59636;-81
2023/03/03 01:40:15;;;;;;;;;;;;;;;-0.82;82.09;101562.78;108654;1259;125697;-82
2023/03/03 01:42:42;;;;;;;;;;;;;;;-0.80;82.21;101562.73;108544;1259;75184;-82
2023/03/03 01:45:13;;;;;;;;;;;;;;;-0.79;82.20;101564.91;108676;1259;67662;-82
2023/03/03 01:47:41;;;;;;;;;;;;;;;-0.77;82.30;101568.09;108652;1263;73042;-81
2023/03/03 01:50:10;;;;;;;;;;;;;;;-0.76;82.19;101562.17;108640;1259;59642;-81
2023/03/03 01:52:41;;;;;;;;;;;;;;;-0.75;82.22;101566.20;108609;1259;125496;-81
2023/03/03 01:55:17;;;;;;;;;;;;;;;-0.76;82.18;101565.31;108588;1259;75463;-81
2023/03/03 01:57:45;;;;;;;;;;;;;;;-0.76;82.17;101563.42;108552;1258;127600;-81
2023/03/03 02:00:12;;;;;;;;;;;;;;;-0.75;82.18;101562.95;108634;1264;73049;-81
2023/03/03 02:02:39;;;;;;;;;;;;;;;-0.74;82.03;101559.73;108719;1259;59423;-81
2023/03/03 02:05:06;;;;;;;;;;;;;;;-0.74;82.17;101556.52;108549;1259;125560;-81
2023/03/03 02:07:33;;;;;;;;;;;;;;;-0.72;82.32;101545.78;108625;1259;74685;-81
2023/03/03 02:10:04;;;;;;;;;;;;;;;-0.70;82.22;101550.95;108539;1258;125089;-81
2023/03/03 02:12:35;;;;;;;;;;;;;;;-0.69;82.11;101550.54;108572;1259;72878;-81
2023/03/03 02:15:11;;;;;;;;;;;;;;;-0.67;82.29;101541.05;108700;1258;59230;-81
2023/03/03 02:17:38;;;;;;;;;;;;;;;-0.65;82.35;101542.63;108580;1258;126401;-81
2023/03/03 02:20:11;;;;;;;;;;;;;;;-0.62;82.32;101543.89;108669;1263;73121;-80
2023/03/03 02:22:43;;;;;;;;;;;;;;;-0.58;82.39;101538.14;108670;1262;125239;-81
2023/03/03 02:25:10;;;;;;;;;;;;;;;-0.55;82.38;101538.17;108620;1259;73269;-80
2023/03/03 02:27:37;;;;;;;;;;;;;;;-0.53;82.52;101534.94;108553;1259;125225;-81
2023/03/03 02:30:10;;;;;;;;;;;;;;;-0.51;82.41;101533.92;108696;1262;60128;-80
2023/03/03 02:32:37;;;;;;;;;;;;;;;-0.48;82.37;101527.60;108506;1261;75257;-81
2023/03/03 02:35:19;;;;;;;;;;;;;;;-0.45;82.66;101520.45;108616;1259;124870;-81
2023/03/03 02:37:46;;;;;;;;;;;;;;;-0.41;82.48;101527.86;108555;1259;72241;-81
2023/03/03 02:40:13;;;;;;;;;;;;;;;-0.38;82.53;101523.23;108539;1261;125604;-81
2023/03/03 02:42:40;;;;;;;;;;;;;;;-0.35;82.60;101520.88;108683;1265;61411;-82
2023/03/03 02:45:07;;;;;;;;;;;;;;;-0.32;82.67;101524.59;108646;1260;74073;-82
2023/03/03 02:47:34;;;;;;;;;;;;;;;-0.31;82.56;101528.98;108528;1265;125025;-81
2023/03/03 02:50:01;;;;;;;;;;;;;;;-0.31;82.59;101528.10;108680;1259;72728;-81
2023/03/03 02:52:28;;;;;;;;;;;;;;;-0.32;82.63;101533.55;108580;1262;125228;-81
2023/03/03 02:54:55;;;;;;;;;;;;;;;-0.34;82.41;101533.22;108626;1261;59209;-81
2023/03/03 02:57:22;;;;;;;;;;;;;;;-0.35;82.59;101533.98;108503;1259;125860;-81
2023/03/03 02:59:49;;;;;;;;;;;;;;;-0.36;82.59;101533.54;108732;1259;66060;-81
2023/03/03 03:02:18;;;;;;;;;;;;;;;-0.37;82.71;101528.48;108652;1259;73501;-81
2023/03/03 03:04:44;;;;;;;;;;;;;;;-0.36;82.87;101530.16;108482;1259;125322;-81
2023/03/03 03:07:11;;;;;;;;;;;;;;;-0.33;82.90;101517.08;108735;1259;60153;-81
2023/03/03 03:09:38;;;;;;;;;;;;;;;-0.31;82.90;101514.49;108607;1260;125562;-81
2023/03/03 03:12:05;;;;;;;;;;;;;;;-0.30;83.14;101523.73;108769;1261;65930;-81
2023/03/03 03:14:32;;;;;;;;;;;;;;;-0.30;83.16;101520.65;108785;1258;71110;-81
2023/03/03 03:17:00;;;;;;;;;;;;;;;-0.30;82.98;101520.98;108645;1263;124876;-81
2023/03/03 03:19:28;;;;;;;;;;;;;;;-0.30;83.36;101524.55;108727;1260;60403;-82
2023/03/03 03:21:55;;;;;;;;;;;;;;;-0.31;83.32;101518.81;108549;1263;126238;-81
2023/03/03 03:24:21;;;;;;;;;;;;;;;-0.30;83.46;101515.06;108676;1261;68370;-82
2023/03/03 03:26:48;;;;;;;;;;;;;;;-0.29;83.54;101513.80;108604;1260;71449;-81
2023/03/03 03:29:15;;;;;;;;;;;;;;;-0.26;83.59;101514.21;108638;1262;125526;-81
2023/03/03 03:31:42;;;;;;;;;;;;;;;-0.24;83.60;101517.66;108671;1264;59531;-81
2023/03/03 03:34:09;;;;;;;;;;;;;;;-0.20;83.72;101523.81;108595;1259;126298;-81
2023/03/03 03:36:38;;;;;;;;;;;;;;;-0.18;83.92;101529.83;108723;1260;67079;-82
2023/03/03 03:39:05;;;;;;;;;;;;;;;-0.15;83.91;101535.81;108688;1259;73639;-81
2023/03/03 03:41:32;;;;;;;;;;;;;;;-0.11;84.04;101534.34;108589;1259;125488;-81
2023/03/03 03:43:59;;;;;;;;;;;;;;;-0.07;84.07;101528.83;108626;1259;60131;-81
2023/03/03 03:46:26;;;;;;;;;;;;;;;-0.03;84.30;101528.61;108627;1261;125039;-81
2023/03/03 03:48:53;;;;;;;;;;;;;;;0.01;84.12;101521.89;108726;1258;67621;-81
2023/03/03 03:51:20;;;;;;;;;;;;;;;0.05;84.22;101516.98;108626;1259;124611;-81
2023/03/03 03:53:47;;;;;;;;;;;;;;;0.08;84.34;101528.33;108713;1258;59772;-81
2023/03/03 03:56:14;;;;;;;;;;;;;;;0.10;84.35;101520.52;108728;1262;60351;-81
2023/03/03 03:58:41;;;;;;;;;;;;;;;0.12;84.44;101520.66;108598;1260;125378;-81
2023/03/03 04:01:08;;;;;;;;;;;;;;;0.12;84.23;101516.73;108504;1265;67025;-82
2023/03/03 04:03:34;;;;;;;;;;;;;;;0.16;84.39;101514.74;108534;1261;124858;-81
2023/03/03 04:06:02;;;;;;;;;;;;;;;0.20;84.40;101522.84;108720;1260;59441;-81
2023/03/03 04:08:28;;;;;;;;;;;;;;;0.26;84.43;101523.10;108771;1262;59491;-81
2023/03/03 04:10:55;;;;;;;;;;;;;;;0.31;84.60;101528.94;108468;1264;126507;-80
2023/03/03 04:13:22;;;;;;;;;;;;;;;0.38;84.35;101532.02;108527;1265;66776;-79
2023/03/03 04:15:49;;;;;;;;;;;;;;;0.41;84.60;101525.86;108555;1259;124687;-79
2023/03/03 04:18:16;;;;;;;;;;;;;;;0.47;84.48;101517.56;108757;1259;59376;-79
2023/03/03 04:20:43;;;;;;;;;;;;;;;0.55;84.68;101516.45;108655;1265;60209;-80
2023/03/03 04:23:10;;;;;;;;;;;;;;;0.63;84.56;101531.20;108440;1265;124635;-80
2023/03/03 04:25:37;;;;;;;;;;;;;;;0.70;84.60;101538.27;108586;1259;67080;-81
2023/03/03 04:28:04;;;;;;;;;;;;;;;0.76;84.69;101530.98;108555;1274;125155;-80
2023/03/03 04:30:31;;;;;;;;;;;;;;;0.84;84.55;101521.73;108517;1259;59587;-80
2023/03/03 04:32:58;;;;;;;;;;;;;;;0.90;84.48;101526.52;108655;1260;59111;-80
2023/03/03 04:35:25;;;;;;;;;;;;;;;0.96;84.57;101528.40;108555;1260;126252;-81
2023/03/03 04:37:52;;;;;;;;;;;;;;;1.03;84.49;101529.42;108717;1261;65753;-82
2023/03/03 04:40:18;;;;;;;;;;;;;;;1.09;84.57;101522.10;108528;1263;125483;-81
2023/03/03 04:42:45;;;;;;;;;;;;;;;1.17;84.45;101513.84;108543;1265;59757;-81
2023/03/03 04:45:12;;;;;;;;;;;;;;;1.22;84.17;101499.02;108653;1262;59352;-81
2023/03/03 04:47:39;;;;;;;;;;;;;;;1.26;84.26;101501.20;108578;1263;125842;-81
2023/03/03 04:50:07;;;;;;;;;;;;;;;1.29;84.28;101488.48;108641;1261;66961;-82
2023/03/03 04:52:34;;;;;;;;;;;;;;;1.33;84.15;101465.30;108592;1259;125596;-82
2023/03/03 04:55:01;;;;;;;;;;;;;;;1.38;84.18;101461.98;108687;1261;59407;-81
2023/03/03 04:57:28;;;;;;;;;;;;;;;1.40;84.05;101459.89;108548;1260;125278;-80
2023/03/03 04:59:55;;;;;;;;;;;;;;;1.42;84.10;101466.27;108752;1261;74731;-80
2023/03/03 05:02:22;;;;;;;;;;;;;;;1.44;84.11;101465.19;108785;1261;66988;-81
2023/03/03 05:04:49;;;;;;;;;;;;;;;1.47;84.00;101475.08;108555;1265;124754;-80
2023/03/03 05:07:18;;;;;;;;;;;;;;;1.46;83.97;101465.89;108658;1263;59477;-81
2023/03/03 05:09:45;;;;;;;;;;;;;;;1.46;83.78;101457.73;108628;1274;125326;-81
2023/03/03 05:12:12;;;;;;;;;;;;;;;1.45;83.83;101449.90;108738;1261;74707;-81
2023/03/03 05:14:39;;;;;;;;;;;;;;;1.46;83.78;101451.98;108693;1260;67036;-81
2023/03/03 05:17:06;;;;;;;;;;;;;;;1.45;83.75;101462.01;108672;1261;125408;-81
2023/03/03 05:19:33;;;;;;;;;;;;;;;1.46;83.97;101469.17;108771;1261;59260;-81
2023/03/03 05:22:00;;;;;;;;;;;;;;;1.46;84.00;101475.06;108597;1261;126061;-83
2023/03/03 05:24:28;;;;;;;;;;;;;;;1.45;83.87;101473.41;108659;1261;74469;-81
2023/03/03 05:26:55;;;;;;;;;;;;;;;1.43;83.69;101473.94;108636;1260;67014;-81
2023/03/03 05:29:22;;;;;;;;;;;;;;;1.40;83.76;101474.23;108460;1259;125774;-81
2023/03/03 05:31:49;;;;;;;;;;;;;;;1.35;83.78;101475.64;108646;1259;59379;-81
2023/03/03 05:34:16;;;;;;;;;;;;;;;1.32;83.78;101479.54;108577;1260;125353;-81
2023/03/03 05:36:43;;;;;;;;;;;;;;;1.32;83.81;101482.64;108704;1258;74911;-81
2023/03/03 05:39:10;;;;;;;;;;;;;;;1.34;83.94;101481.75;108684;1261;66915;-81
2023/03/03 05:41:36;;;;;;;;;;;;;;;1.35;84.17;101477.88;108512;1260;124657;-83
2023/03/03 05:44:03;;;;;;;;;;;;;;;1.38;84.06;101476.00;108528;1259;59816;-83
2023/03/03 05:46:30;;;;;;;;;;;;;;;1.40;84.11;101485.31;108436;1263;125452;-83
2023/03/03 05:48:57;;;;;;;;;;;;;;;1.41;83.99;101489.32;108685;1261;73871;-82
2023/03/03 05:51:24;;;;;;;;;;;;;;;1.41;84.07;101488.46;108666;1263;125607;-81
2023/03/03 05:53:51;;;;;;;;;;;;;;;1.45;84.23;101492.20;108539;1260;71921;-80
2023/03/03 05:56:18;;;;;;;;;;;;;;;1.47;84.16;101491.85;108705;1260;59327;-80
2023/03/03 05:58:45;;;;;;;;;;;;;;;1.46;84.14;101491.80;108642;1261;125415;-81
2023/03/03 06:01:12;;;;;;;;;;;;;;;1.45;84.01;101485.86;108637;1260;75272;-81
2023/03/03 06:03:38;;;;;;;;;;;;;;;1.44;83.99;101489.23;108586;1264;124661;-80
2023/03/03 06:06:09;;;;;;;;;;;;;;;1.43;83.95;101492.28;108767;1258;72644;-89
2023/03/03 06:08:36;;;;;;;;;;;;;;;1.42;84.15;101489.44;108642;1265;59495;-81
2023/03/03 06:11:03;;;;;;;;;;;;;;;1.42;84.05;101486.69;108668;1261;126004;-81
2023/03/03 06:13:29;;;;;;;;;;;;;;;1.43;84.03;101492.27;108771;1259;73997;-81
2023/03/03 06:15:56;;;;;;;;;;;;;;;1.45;83.98;101496.02;108687;1261;125188;-82
2023/03/03 06:18:23;;;;;;;;;;;;;;;1.46;83.92;101493.72;108698;1264;73198;-82
2023/03/03 06:20:51;;;;;;;;;;;;;;;1.48;84.06;101495.43;108798;1260;59890;-81
2023/03/03 06:23:18;;;;;;;;;;;;;;;1.51;84.09;101495.14;108690;1260;126314;-81
2023/03/03 06:25:46;;;;;;;;;;;;;;;1.53;84.14;101496.52;108635;1260;74504;-81
2023/03/03 06:28:13;;;;;;;;;;;;;;;1.56;83.92;101491.28;108645;1260;125430;-81
2023/03/03 06:30:40;;;;;;;;;;;;;;;1.58;84.08;101487.15;108699;1260;73998;-81
2023/03/03 06:33:07;;;;;;;;;;;;;;;1.61;83.90;101488.94;108558;1261;59780;-81
2023/03/03 06:35:34;;;;;;;;;;;;;;;1.64;83.98;101496.39;108554;1260;126654;-81
2023/03/03 06:38:01;;;;;;;;;;;;;;;1.67;83.77;101495.43;108635;1258;74723;-81
2023/03/03 06:40:28;;;;;;;;;;;;;;;1.70;83.85;101492.87;108655;1260;125504;-80
2023/03/03 06:42:55;;;;;;;;;;;;;;;1.75;83.78;101498.21;108740;1261;71866;-81
2023/03/03 06:45:22;;;;;;;;;;;;;;;1.79;83.74;101497.65;108543;1261;125246;-81
2023/03/03 06:47:48;;;;;;;;;;;;;;;1.83;83.64;101498.09;108635;1260;59403;-81
2023/03/03 06:50:16;;;;;;;;;;;;;;;1.88;83.70;101496.70;108700;1260;74105;-81
2023/03/03 06:52:43;;;;;;;;;;;;;;;1.92;83.62;101494.61;108528;1261;125169;-81
2023/03/03 06:55:12;;;;;;;;;;;;;;;1.97;83.54;101492.00;108534;1261;72456;-81
2023/03/03 06:57:40;;;;;;;;;;;;;;;2.03;83.60;101489.34;108539;1260;125439;-81
2023/03/03 07:00:14;;;;;;;;;;;;;;;2.11;83.43;101497.34;108668;1259;59632;-81
2023/03/03 07:02:41;;;;;;;;;;;;;;;2.20;83.30;101501.57;108681;1259;72457;-81
2023/03/03 07:05:13;;;;;;;;;;;;;;;2.28;83.23;101500.08;108498;1261;126294;-81
2023/03/03 07:07:40;;;;;;;;;;;;;;;2.37;83.28;101501.75;108536;1261;71435;-81
2023/03/03 07:10:27;;;;;;;;;;;;;;;2.47;83.03;101505.77;108561;1260;125807;-81
2023/03/03 07:12:55;;;;;;;;;;;;;;;2.61;82.93;101509.64;108798;1258;59303;-81
2023/03/03 07:15:23;;;;;;;;;;;;;;;2.71;82.73;101510.36;108494;1264;126438;-81
2023/03/03 07:17:54;;;;;;;;;;;;;;;2.82;82.59;101515.77;108712;1260;67098;-80
2023/03/03 07:20:22;;;;;;;;;;;;;;;2.93;82.58;101514.81;108599;1261;72882;-80
2023/03/03 07:22:50;;;;;;;;;;;;;;;3.06;82.50;101514.98;108525;1260;124555;-80
2023/03/03 07:25:29;;;;;;;;;;;;;;;3.18;82.23;101520.83;108652;1260;59414;-80
2023/03/03 07:27:59;;;;;;;;;;;;;;;3.26;81.76;101524.31;108575;1259;125321;-80
2023/03/03 07:30:27;;;;;;;;;;;;;;;3.33;81.80;101513.46;108670;1260;67265;-80
2023/03/03 07:32:57;;;;;;;;;;;;;;;3.37;81.47;101513.05;108747;1258;73223;-80
2023/03/03 07:35:43;;;;;;;;;;;;;;;3.41;81.25;101516.23;108574;1259;125110;-81
2023/03/03 07:38:15;;;;;;;;;;;;;;;3.46;81.14;101512.61;108493;1273;59571;-80
2023/03/03 07:40:47;;;;;;;;;;;;;;;3.57;81.17;101513.86;108654;1261;124954;-80
2023/03/03 07:43:19;;;;;;;;;;;;;;;3.69;81.11;101514.98;108619;1260;65756;-80
2023/03/03 07:45:46;;;;;;;;;;;;;;;3.83;80.84;101510.11;108514;1259;125534;-80
2023/03/03 07:48:36;;;;;;;;;;;;;;;3.93;80.67;101511.30;108710;1260;59964;-80
2023/03/03 07:51:12;;;;;;;;;;;;;;;4.07;80.52;101506.77;108684;1260;59313;-80
2023/03/03 07:53:39;;;;;;;;;;;;;;;4.20;80.40;101506.20;108659;1259;124797;-80
2023/03/03 07:56:26;;;;;;;;;;;;;;;4.30;80.22;101507.56;108685;1260;65521;-80
2023/03/03 07:58:54;;;;;;;;;;;;;;;4.42;79.84;101510.05;108628;1259;126013;-80
2023/03/03 08:01:22;;;;;;;;;;;;;;;4.49;79.62;101505.56;108509;1266;59321;-80
2023/03/03 08:03:49;;;;;;;;;;;;;;;4.54;79.43;101505.85;108543;1258;126322;-80
2023/03/03 08:06:35;;;;;;;;;;;;;;;4.55;79.13;101507.69;108610;1263;73421;-81
2023/03/03 08:09:39;;;;;;;;;;;;;;;4.59;79.08;101507.24;108612;1259;65767;-81
2023/03/03 08:12:06;;;;;;;;;;;;;;;4.61;78.81;101498.50;108630;1259;72499;-81
2023/03/03 08:14:34;;;;;;;;;;;;;;;4.63;78.63;101503.80;108786;1260;59079;-81
2023/03/03 08:17:01;;;;;;;;;;;;;;;4.62;78.43;101498.36;108641;1259;124883;-81
2023/03/03 08:19:29;;;;;;;;;;;;;;;4.65;78.38;101493.35;108618;1259;74096;-81
2023/03/03 08:21:58;;;;;;;;;;;;;;;4.74;78.45;101489.71;108498;1260;124759;-81
2023/03/03 08:24:26;;;;;;;;;;;;;;;4.83;78.43;101485.56;108575;1259;70583;-81
2023/03/03 08:26:56;;;;;;;;;;;;;;;4.94;78.36;101486.38;108648;1258;59256;-81
2023/03/03 08:29:25;;;;;;;;;;;;;;;5.04;78.21;101481.96;108695;1259;126595;-81
2023/03/03 08:31:51;;;;;;;;;;;;;;;5.15;78.15;101481.86;108534;1259;75179;-81
2023/03/03 08:34:18;;;;;;;;;;;;;;;5.25;77.84;101479.86;108608;1259;125098;-81
2023/03/03 08:36:46;;;;;;;;;;;;;;;5.31;77.54;101483.84;108670;1258;72675;-82
2023/03/03 08:39:13;;;;;;;;;;;;;;;5.35;77.31;101486.34;108664;1259;59453;-81
2023/03/03 08:41:42;;;;;;;;;;;;;;;5.39;77.20;101487.27;108516;1263;124479;-79
2023/03/03 08:44:09;;;;;;;;;;;;;;;5.44;76.93;101492.96;108528;1259;73847;-80
2023/03/03 08:46:37;;;;;;;;;;;;;;;5.48;76.89;101490.05;108565;1260;124448;-81
2023/03/03 08:49:03;;;;;;;;;;;;;;;5.57;76.84;101489.17;108594;1259;71398;-80
2023/03/03 08:51:33;;;;;;;;;;;;;;;5.70;76.90;101489.40;108676;1258;123892;-80
2023/03/03 08:54:02;;;;;;;;;;;;;;;5.83;76.64;101489.08;108678;1260;59491;-81
2023/03/03 08:56:29;;;;;;;;;;;;;;;5.90;76.40;101486.64;108645;1259;75161;-80
2023/03/03 08:58:56;;;;;;;;;;;;;;;5.93;76.17;101486.64;108668;1258;124791;-80
2023/03/03 09:01:23;;;;;;;;;;;;;;;5.95;75.76;101490.77;108627;1262;73114;-82
2023/03/03 09:03:50;;;;;;;;;;;;;;;5.92;75.38;101493.59;108662;1262;125943;-82
2023/03/03 09:06:17;;;;;;;;;;;;;;;5.89;75.09;101501.09;108711;1259;59599;-80
2023/03/03 09:08:44;;;;;;;;;;;;;;;5.83;74.81;101494.98;108711;1261;73371;-80
2023/03/03 09:11:11;;;;;;;;;;;;;;;5.78;74.82;101494.23;108723;1258;124277;-80
2023/03/03 09:13:38;;;;;;;;;;;;;;;5.79;74.77;101497.36;108794;1258;72531;-79
2023/03/03 09:16:14;;;;;;;;;;;;;;;5.74;74.43;101493.08;108553;1273;126421;-80
2023/03/03 09:18:41;;;;;;;;;;;;;;;5.71;74.47;101492.95;108656;1258;59345;-80
2023/03/03 09:21:31;;;;;;;;;;;;;;;5.75;74.52;101485.84;108725;1258;75294;-80
2023/03/03 09:23:58;;;;;;;;;;;;;;;5.79;74.39;101486.74;108670;1259;65805;-80
2023/03/03 09:26:29;;;;;;;;;;;;;;;5.84;74.35;101481.27;108562;1261;71427;-80
2023/03/03 09:29:08;;;;;;;;;;;;;;;5.85;74.19;101480.47;108597;1260;125922;-80
2023/03/03 09:31:37;;;;;;;;;;;;;;;5.80;74.07;101482.11;108732;1260;59476;-80
2023/03/03 09:34:23;;;;;;;;;;;;;;;5.75;73.94;101480.58;108689;1259;124336;-80
2023/03/03 09:36:51;;;;;;;;;;;;;;;5.63;73.90;101478.75;108816;1258;65787;-80
2023/03/03 09:39:19;;;;;;;;;;;;;;;5.49;73.75;101481.92;108602;1259;72953;-80
2023/03/03 09:42:04;;;;;;;;;;;;;;;5.35;73.74;101483.19;108306;1261;250336;-80
2023/03/03 09:44:37;;;;;;;;;;;;;;;5.21;73.82;101482.29;108685;1259;60194;-80
2023/03/03 09:47:04;;;;;;;;;;;;;;;5.13;73.92;101485.23;108592;1258;124442;-80
2023/03/03 09:49:34;;;;;;;;;;;;;;;5.06;74.17;101481.37;108739;1260;67103;-80
2023/03/03 09:52:19;;;;;;;;;;;;;;;5.03;74.23;101481.04;108636;1259;124542;-80
2023/03/03 09:54:52;;;;;;;;;;;;;;;4.98;74.27;101482.44;108767;1259;59336;-80
2023/03/03 09:57:43;;;;;;;;;;;;;;;4.93;74.26;101476.73;108794;1259;59882;-81
2023/03/03 10:00:25;;;;;;;;;;;;;;;4.92;74.39;101475.64;108678;1258;74751;-81
2023/03/03 10:02:52;;;;;;;;;;;;;;;4.89;74.44;101473.03;108641;1261;68099;-81
2023/03/03 10:05:19;;;;;;;;;;;;;;;4.90;74.55;101472.24;108588;1259;126003;-80
2023/03/03 10:08:05;;;;;;;;;;;;;;;4.94;74.57;101470.57;108624;1262;59390;-81
2023/03/03 10:10:50;;;;;;;;;;;;;;;4.96;74.66;101467.56;108666;1258;124675;-80
2023/03/03 10:13:54;;;;;;;;;;;;;;;4.96;74.39;101466.02;108637;1258;75808;-80
2023/03/03 10:16:27;;;;;;;;;;;;;;;4.94;74.35;101461.67;108337;1264;124926;-81
2023/03/03 10:19:21;;;;;;;;;;;;;;;4.94;74.56;101458.38;108488;1259;73549;-81
2023/03/03 10:21:54;;;;;;;;;;;;;;;4.94;74.45;101458.03;108533;1259;124275;-81
2023/03/03 10:24:26;;;;;;;;;;;;;;;4.93;74.28;101455.04;108592;1258;59439;-82
2023/03/03 10:26:59;;;;;;;;;;;;;;;4.93;74.44;101457.31;108626;1263;73710;-81
2023/03/03 10:29:32;;;;;;;;;;;;;;;4.96;74.39;101461.13;108630;1258;124738;-82
2023/03/03 10:31:59;;;;;;;;;;;;;;;4.96;74.18;101459.02;108588;1259;72865;-81
2023/03/03 10:34:42;;;;;;;;;;;;;;;4.96;74.16;101462.33;108553;1259;125446;-82
2023/03/03 10:37:15;;;;;;;;;;;;;;;4.97;74.06;101458.73;108768;1259;59559;-81
2023/03/03 10:39:56;;;;;;;;;;;;;;;5.00;74.23;101459.77;108612;1258;124623;-81
2023/03/03 10:42:39;;;;;;;;;;;;;;;5.02;73.97;101459.87;108549;1260;65253;-81
2023/03/03 10:45:05;;;;;;;;;;;;;;;5.03;74.12;101454.94;108739;1262;72637;-81
2023/03/03 10:47:35;;;;;;;;;;;;;;;5.06;74.00;101456.48;108535;1261;124854;-81
2023/03/03 10:50:03;;;;;;;;;;;;;;;5.11;74.05;101457.63;108728;1258;60078;-81
2023/03/03 10:52:30;;;;;;;;;;;;;;;5.16;73.88;101459.33;108608;1262;123941;-81
2023/03/03 10:55:23;;;;;;;;;;;;;;;5.17;73.67;101463.94;108698;1259;66038;-81
2023/03/03 10:57:53;;;;;;;;;;;;;;;5.21;73.62;101463.60;108500;1259;124825;-81
2023/03/03 11:00:24;;;;;;;;;;;;;;;5.24;73.65;101458.06;108761;1259;59021;-81
2023/03/03 11:02:52;;;;;;;;;;;;;;;5.27;73.62;101459.44;108618;1258;60139;-81
2023/03/03 11:05:31;;;;;;;;;;;;;;;5.32;73.57;101458.47;108656;1258;125210;-81
2023/03/03 11:08:07;;;;;;;;;;;;;;;5.37;73.17;101460.52;108733;1259;64878;-81
2023/03/03 11:10:52;;;;;;;;;;;;;;;5.38;73.06;101457.27;108533;1258;124939;-81
2023/03/03 11:13:41;;;;;;;;;;;;;;;5.41;72.92;101456.39;108540;1258;59439;-81
2023/03/03 11:16:20;;;;;;;;;;;;;;;5.39;72.79;101454.21;108565;1259;125865;-81
2023/03/03 11:19:00;;;;;;;;;;;;;;;5.36;72.70;101452.27;108734;1261;73389;-81
2023/03/03 11:21:33;;;;;;;;;;;;;;;5.36;72.68;101447.91;108690;1259;67517;-81
2023/03/03 11:24:06;;;;;;;;;;;;;;;5.38;72.76;101445.60;108719;1259;71982;-80
2023/03/03 11:26:38;;;;;;;;;;;;;;;5.40;72.56;101447.33;108634;1263;60163;-80
2023/03/03 11:29:08;;;;;;;;;;;;;;;5.43;72.33;101446.25;108545;1259;124816;-80
2023/03/03 11:31:48;;;;;;;;;;;;;;;5.43;72.26;101438.62;108759;1258;75272;-80
2023/03/03 11:34:20;;;;;;;;;;;;;;;5.47;72.45;101438.14;108580;1259;125293;-81
2023/03/03 11:36:48;;;;;;;;;;;;;;;5.51;72.19;101439.55;108642;1259;70122;-80
2023/03/03 11:39:16;;;;;;;;;;;;;;;5.52;71.83;101437.73;108670;1259;59640;-80
2023/03/03 11:42:06;;;;;;;;;;;;;;;5.55;71.89;101436.84;108553;1258;124548;-80
2023/03/03 11:44:41;;;;;;;;;;;;;;;5.59;71.84;101431.34;108725;1259;74677;-80
2023/03/03 11:47:32;;;;;;;;;;;;;;;5.63;71.82;101426.15;108619;1259;124488;-80
2023/03/03 11:50:03;;;;;;;;;;;;;;;5.69;71.83;101425.25;108658;1259;71113;-80
2023/03/03 11:53:03;;;;;;;;;;;;;;;5.74;71.76;101417.86;108625;1259;124390;-80
2023/03/03 11:55:30;;;;;;;;;;;;;;;5.78;71.72;101410.23;108379;1264;59332;-80
2023/03/03 11:58:04;;;;;;;;;;;;;;;5.82;71.57;101404.74;108290;1263;124537;-80
2023/03/03 12:00:34;;;;;;;;;;;;;;;5.86;71.41;101401.81;108348;1268;67124;-80
2023/03/03 12:03:19;;;;;;;;;;;;;;;5.91;71.58;101393.35;108386;1263;72391;-80
2023/03/03 12:06:00;;;;;;;;;;;;;;;5.98;71.51;101386.08;108322;1267;125506;-81
2023/03/03 12:08:47;;;;;;;;;;;;;;;6.04;71.44;101379.45;108418;1263;60242;-81
2023/03/03 12:11:22;;;;;;;;;;;;;;;6.08;71.29;101371.61;108292;1263;126192;-81
2023/03/03 12:13:53;;;;;;;;;;;;;;;6.11;71.23;101374.44;108453;1264;65603;-81
2023/03/03 12:16:23;;;;;;;;;;;;;;;6.18;71.19;101371.64;108233;1264;126438;-82
2023/03/03 12:18:50;;;;;;;;;;;;;;;6.25;71.12;101375.69;108364;1263;59740;-81
2023/03/03 12:21:35;;;;;;;;;;;;;;;6.32;70.93;101376.06;108379;1264;59538;-81
2023/03/03 12:24:21;;;;;;;;;;;;;;;6.40;70.84;101371.92;108280;1264;74608;-81
2023/03/03 12:27:03;;;;;;;;;;;;;;;6.46;70.55;101370.98;108340;1264;67757;-81
2023/03/03 12:29:38;;;;;;;;;;;;;;;6.48;70.33;101361.52;108149;1264;124581;-81
2023/03/03 12:32:46;;;;;;;;;;;;;;;;;;;;;
2023/03/03 12:36:03;;;;;;;;;;;;;;;6.62;70.08;101349.36;108686;1259;61180;-81
2023/03/03 12:38:43;;;;;;;;;;;;;;;6.70;69.94;101339.95;108460;1259;74913;-81
2023/03/03 12:41:13;;;;;;;;;;;;;;;6.73;69.74;101338.88;108606;1259;124353;-81
2023/03/03 12:43:46;;;;;;;;;;;;;;;6.75;69.71;101341.95;108686;1258;72405;-81
2023/03/03 12:46:18;;;;;;;;;;;;;;;6.73;69.18;101339.78;108538;1259;124755;-81
2023/03/03 12:48:45;;;;;;;;;;;;;;;6.66;68.84;101342.19;108582;1258;60361;-81